createdAt,value
2022-10-08T00:01:40.746Z,11.67
2022-10-08T00:05:42.201Z,11.70
2022-10-08T00:09:43.462Z,11.73
2022-10-08T00:13:46.082Z,11.74
2022-10-08T00:17:47.324Z,11.73
2022-10-08T00:21:53.154Z,11.69
2022-10-08T00:25:54.405Z,11.67
2022-10-08T00:29:55.752Z,11.63
2022-10-08T00:33:57.860Z,11.56
2022-10-08T00:37:59.257Z,11.48
2022-10-08T00:42:02.158Z,11.43
2022-10-08T00:46:04.483Z,11.38
2022-10-08T00:50:14.652Z,11.31
2022-10-08T00:54:17.383Z,11.24
2022-10-08T00:58:22.853Z,11.17
2022-10-08T05:13:15.128Z,7.48
2022-10-08T05:17:16.772Z,7.45
2022-10-08T05:21:19.376Z,7.40
2022-10-08T05:25:20.600Z,7.38
2022-10-08T05:29:21.909Z,7.29
2022-10-08T05:33:23.138Z,7.20
2022-10-08T05:37:25.458Z,7.21
2022-10-08T05:41:27.893Z,7.15
2022-10-08T05:45:30.678Z,7.15
2022-10-08T05:49:31.980Z,7.11
2022-10-08T05:53:37.312Z,7.09
2022-10-08T05:57:38.687Z,7.08
2022-10-08T06:01:40.004Z,7.05
2022-10-08T06:05:41.266Z,7.05
2022-10-08T06:09:44.884Z,7.08
2022-10-08T06:13:46.192Z,7.07
2022-10-08T06:17:47.450Z,7.07
2022-10-08T06:21:48.744Z,7.09
2022-10-08T06:25:50.242Z,7.10
2022-10-08T06:29:51.478Z,7.11
2022-10-08T06:33:57.330Z,7.13
2022-10-08T06:37:58.648Z,7.17
2022-10-08T06:41:59.981Z,7.24
2022-10-08T06:46:07.416Z,7.31
2022-10-08T06:50:09.307Z,7.33
2022-10-08T06:54:10.657Z,7.39
2022-10-08T06:58:11.955Z,7.41
2022-10-08T07:02:13.267Z,7.46
2022-10-08T07:06:14.588Z,7.47
2022-10-08T07:10:18.491Z,7.64
2022-10-08T07:14:20.060Z,7.91
2022-10-08T07:18:21.313Z,8.17
2022-10-08T07:22:22.810Z,8.59
2022-10-08T07:26:25.163Z,9.05
2022-10-08T07:30:26.471Z,9.56
2022-10-08T07:34:27.752Z,10.11
2022-10-08T07:38:29.024Z,10.57
2022-10-08T07:42:31.616Z,10.98
2022-10-08T07:46:33.966Z,11.48
2022-10-08T07:50:35.196Z,12.02
2022-10-08T07:54:36.797Z,12.58
2022-10-08T07:58:38.684Z,13.30
2022-10-08T08:02:39.947Z,13.77
2022-10-08T08:06:45.068Z,13.86
2022-10-08T08:10:46.348Z,13.75
2022-10-08T08:14:47.620Z,13.60
2022-10-08T08:18:50.012Z,13.49
2022-10-08T08:22:51.300Z,13.34
2022-10-08T08:26:55.587Z,13.45
2022-10-08T08:31:07.781Z,13.68
2022-10-08T08:35:09.119Z,13.85
2022-10-08T08:39:14.272Z,14.07
2022-10-08T08:43:15.829Z,14.32
2022-10-08T08:47:20.185Z,14.67
2022-10-08T08:51:21.904Z,14.86
2022-10-08T08:55:33.028Z,14.96
2022-10-08T08:59:37.938Z,15.14
2022-10-08T09:04:11.505Z,15.61
2022-10-08T09:08:20.824Z,16.02
2022-10-08T09:12:36.158Z,16.41
2022-10-08T09:16:38.573Z,16.37
2022-10-08T09:20:40.538Z,16.22
2022-10-08T09:24:42.032Z,16.35
2022-10-08T09:29:03.510Z,16.58
2022-10-08T09:33:16.823Z,16.65
2022-10-08T09:37:23.092Z,16.68
2022-10-08T09:41:28.451Z,16.76
2022-10-08T09:45:31.363Z,17.03
2022-10-08T09:49:33.738Z,17.01
2022-10-08T09:53:46.924Z,16.98
2022-10-08T09:57:51.162Z,16.97
2022-10-08T10:01:53.672Z,17.07
2022-10-08T10:05:56.017Z,17.13
2022-10-08T10:10:01.801Z,17.14
2022-10-08T10:14:13.548Z,17.05
2022-10-08T10:18:16.729Z,16.77
2022-10-08T10:22:24.764Z,16.57
2022-10-08T10:26:29.740Z,16.36
2022-10-08T10:30:35.429Z,16.14
2022-10-08T10:34:38.796Z,16.05
2022-10-08T10:38:45.093Z,16.00
2022-10-08T10:42:51.167Z,16.05
2022-10-08T10:46:57.557Z,16.07
2022-10-08T10:51:14.361Z,16.07
2022-10-08T10:55:54.913Z,16.01
2022-10-08T11:00:03.481Z,15.89
2022-10-08T11:04:10.740Z,15.77
2022-10-08T11:08:30.244Z,15.72
2022-10-08T11:12:42.868Z,15.84
2022-10-08T11:16:54.788Z,15.96
2022-10-08T11:21:04.802Z,16.00
2022-10-08T11:25:24.636Z,16.06
2022-10-08T11:29:25.901Z,16.14
2022-10-08T11:33:27.545Z,16.26
2022-10-08T11:37:35.641Z,16.31
2022-10-08T11:41:40.232Z,16.42
2022-10-08T11:45:44.232Z,16.39
2022-10-08T11:49:49.701Z,16.40
2022-10-08T11:54:14.329Z,16.44
2022-10-08T11:58:23.554Z,16.82
2022-10-08T12:02:30.211Z,17.06
2022-10-08T12:06:35.588Z,17.15
2022-10-08T12:10:38.605Z,17.17
2022-10-08T12:14:45.295Z,17.05
2022-10-08T12:18:48.064Z,17.00
2022-10-08T12:23:06.032Z,17.03
2022-10-08T12:27:20.653Z,17.18
2022-10-08T12:31:39.211Z,17.39
2022-10-08T12:35:58.717Z,17.27
2022-10-08T12:40:03.006Z,17.11
2022-10-08T12:44:08.733Z,17.08
2022-10-08T12:48:39.703Z,17.05
2022-10-08T12:52:41.057Z,16.99
2022-10-08T12:56:42.314Z,16.84
2022-10-08T13:00:44.714Z,16.71
2022-10-08T13:04:46.540Z,16.57
2022-10-08T13:08:48.985Z,16.65
2022-10-08T13:13:00.242Z,16.82
2022-10-08T13:17:02.117Z,16.88
2022-10-08T13:21:07.966Z,16.72
2022-10-08T13:25:27.926Z,16.73
2022-10-08T13:29:36.361Z,16.88
2022-10-08T13:33:38.748Z,16.96
2022-10-08T13:37:40.518Z,17.08
2022-10-08T13:41:52.361Z,17.17
2022-10-08T13:45:53.845Z,17.31
2022-10-08T13:50:00.489Z,17.37
2022-10-08T13:54:01.753Z,17.41
2022-10-08T13:58:04.510Z,17.39
2022-10-08T14:02:06.370Z,17.44
2022-10-08T14:06:07.668Z,17.48
2022-10-08T14:10:12.684Z,17.50
2022-10-08T14:14:14.853Z,17.49
2022-10-08T14:18:16.177Z,17.53
2022-10-08T14:22:17.572Z,17.48
2022-10-08T14:26:18.833Z,17.49
2022-10-08T14:30:20.852Z,17.52
2022-10-08T14:34:22.100Z,17.53
2022-10-08T14:38:24.565Z,17.55
2022-10-08T14:42:25.928Z,17.60
2022-10-08T14:46:27.317Z,17.67
2022-10-08T14:50:28.628Z,17.72
2022-10-08T14:54:30.058Z,17.79
2022-10-08T14:58:31.605Z,17.81
2022-10-08T15:02:34.692Z,17.77
2022-10-08T15:06:36.060Z,17.80
2022-10-08T15:10:37.747Z,17.80
2022-10-08T15:14:39.009Z,17.86
2022-10-08T15:18:40.764Z,17.91
2022-10-08T15:22:42.037Z,18.02
2022-10-08T15:26:43.362Z,18.15
2022-10-08T15:30:45.606Z,18.28
2022-10-08T15:34:47.151Z,18.50
2022-10-08T15:38:53.865Z,18.81
2022-10-08T15:42:55.160Z,18.35
2022-10-08T15:47:05.514Z,18.11
2022-10-08T15:51:07.261Z,18.29
2022-10-08T15:55:08.892Z,18.81
2022-10-08T15:59:10.196Z,18.21
2022-10-08T16:03:11.434Z,17.43
2022-10-08T16:07:12.701Z,16.73
2022-10-08T16:11:16.983Z,16.12
2022-10-08T16:15:18.376Z,15.64
2022-10-08T16:19:20.797Z,15.19
2022-10-08T16:23:22.098Z,14.77
2022-10-08T16:27:23.314Z,14.41
2022-10-08T16:31:25.558Z,14.13
2022-10-08T16:35:26.825Z,13.87
2022-10-08T16:39:28.236Z,13.63
2022-10-08T16:43:29.500Z,13.43
2022-10-08T16:47:31.266Z,13.21
2022-10-08T16:51:36.453Z,12.98
2022-10-08T16:55:38.629Z,12.83
2022-10-08T16:59:39.901Z,12.58
2022-10-08T17:03:41.152Z,12.31
2022-10-08T17:07:42.389Z,12.17
2022-10-08T17:11:43.625Z,11.96
2022-10-08T17:15:44.941Z,11.80
2022-10-08T17:19:46.217Z,11.68
2022-10-08T17:23:47.837Z,11.49
2022-10-08T17:27:49.204Z,11.35
2022-10-08T17:31:50.548Z,11.27
2022-10-08T17:36:08.868Z,11.14
2022-10-08T17:40:10.347Z,11.00
2022-10-08T17:44:12.354Z,10.84
2022-10-08T17:48:13.657Z,10.74
2022-10-08T17:52:15.212Z,10.60
2022-10-08T17:56:16.845Z,10.50
2022-10-08T18:00:18.321Z,10.39
2022-10-08T18:04:19.596Z,10.27
2022-10-08T18:08:21.325Z,10.21
2022-10-08T18:12:22.553Z,10.16
2022-10-08T18:16:25.379Z,10.04
2022-10-08T18:20:26.604Z,9.94
2022-10-08T18:24:27.994Z,9.90
2022-10-08T18:28:29.308Z,9.77
2022-10-08T18:32:31.293Z,9.69
2022-10-08T18:36:33.991Z,9.62
2022-10-08T18:40:35.426Z,9.54
2022-10-08T18:44:36.667Z,9.48
2022-10-08T18:48:38.593Z,9.35
2022-10-08T18:52:39.876Z,9.30
2022-10-08T18:56:41.550Z,9.29
2022-10-08T19:00:44.875Z,9.22
2022-10-08T19:04:46.274Z,9.16
2022-10-08T19:08:48.600Z,9.06
2022-10-08T19:12:50.268Z,9.02
2022-10-08T19:16:52.296Z,8.95
2022-10-08T19:20:55.016Z,8.89
2022-10-08T19:24:58.580Z,8.82
2022-10-08T19:29:02.020Z,8.77
2022-10-08T19:33:03.410Z,8.74
2022-10-08T19:37:04.788Z,8.67
2022-10-08T19:41:09.575Z,8.60
2022-10-08T19:45:11.141Z,8.54
2022-10-08T19:49:12.485Z,8.45
2022-10-08T19:53:14.843Z,8.34
2022-10-08T19:57:16.092Z,8.31
2022-10-08T20:01:18.941Z,8.28
2022-10-08T20:05:20.222Z,8.23
2022-10-08T20:09:22.244Z,8.11
2022-10-08T20:13:23.518Z,8.03
2022-10-08T20:17:24.805Z,8.00
2022-10-08T20:21:26.965Z,7.98
2022-10-08T20:25:28.455Z,7.94
2022-10-08T20:29:31.144Z,7.91
2022-10-08T20:33:32.712Z,7.83
2022-10-08T20:37:34.161Z,7.77
2022-10-08T20:41:36.237Z,7.70
2022-10-08T20:45:37.536Z,7.67
2022-10-08T20:49:38.848Z,7.60
2022-10-08T20:53:40.536Z,7.53
2022-10-08T20:57:42.718Z,7.45
2022-10-08T21:01:44.476Z,7.42
2022-10-08T21:05:46.016Z,7.33
2022-10-08T21:09:48.630Z,7.28
2022-10-08T21:13:50.409Z,7.24
2022-10-08T21:17:51.639Z,7.20
2022-10-08T21:21:52.932Z,7.13
2022-10-08T21:25:54.152Z,7.09
2022-10-08T21:29:55.419Z,6.97
2022-10-08T21:33:57.584Z,6.90
2022-10-08T21:37:58.937Z,6.85
2022-10-08T21:42:00.212Z,6.87
2022-10-08T21:46:01.767Z,6.82
2022-10-08T21:50:03.271Z,6.73
2022-10-08T21:54:05.474Z,6.72
2022-10-08T21:58:06.728Z,6.64
2022-10-08T22:02:08.626Z,6.62
2022-10-08T22:06:09.984Z,6.57
2022-10-08T22:10:11.293Z,6.50
2022-10-08T22:14:12.603Z,6.48
2022-10-08T22:18:14.021Z,6.41
2022-10-08T22:22:15.309Z,6.34
2022-10-08T22:26:21.317Z,6.30
2022-10-08T22:30:22.642Z,6.21
2022-10-08T22:34:23.898Z,6.14
2022-10-08T22:38:25.144Z,6.11
2022-10-08T22:42:26.443Z,6.07
2022-10-08T22:46:29.441Z,6.05
2022-10-08T22:50:30.795Z,6.02
2022-10-08T22:54:32.293Z,6.02
2022-10-08T22:58:34.516Z,5.94
2022-10-08T23:02:35.988Z,5.90
2022-10-08T23:06:37.970Z,5.87
2022-10-08T23:10:39.295Z,5.83
2022-10-08T23:14:40.725Z,5.77
2022-10-08T23:18:43.195Z,5.71
2022-10-08T23:22:44.651Z,5.65
2022-10-08T23:26:46.081Z,5.60
2022-10-08T23:30:47.738Z,5.60
2022-10-08T23:34:49.002Z,5.55
2022-10-08T23:38:50.482Z,5.50
2022-10-08T23:42:52.336Z,5.39
2022-10-08T23:46:53.585Z,5.38
2022-10-08T23:50:54.828Z,5.33
2022-10-08T23:54:56.273Z,5.28
2022-10-08T23:58:57.919Z,5.23
